Time;durP1;ratioP1;P1;durP2;ratioP2;P2;SDS_P1;SDS_P2;PMS_P1;PMS_P2;Temp;Humidity;BMP_temperature;BMP_pressure;BME280_temperature;BME280_humidity;BME280_pressure;Samples;Min_cycle;Max_cycle;Signal;HPM_P1;HPM_P2
2021/08/27 00:00:44;;;;;;;65.20;29.20;;;12.00;99.90;;;;;;4386492;28;659025;-71
2021/08/27 00:03:31;;;;;;;62.50;31.13;;;12.00;99.90;;;;;;4432714;28;658362;-71
2021/08/27 00:06:19;;;;;;;52.17;25.73;;;12.00;99.90;;;;;;4400920;28;660338;-71
2021/08/27 00:09:07;;;;;;;57.50;28.60;;;12.00;99.90;;;;;;4419680;28;659015;-71
2021/08/27 00:11:54;;;;;;;60.67;28.57;;;12.00;99.90;;;;;;4405047;28;659883;-71
2021/08/27 00:14:44;;;;;;;51.03;28.00;;;12.00;99.90;;;;;;4424868;28;658795;-71
2021/08/27 00:17:31;;;;;;;53.33;26.80;;;12.00;99.90;;;;;;4422553;28;659276;-71
2021/08/27 00:20:19;;;;;;;45.03;25.17;;;12.00;99.90;;;;;;4397232;28;660473;-71
2021/08/27 00:23:07;;;;;;;45.17;24.83;;;12.00;99.90;;;;;;4429355;28;658127;-71
2021/08/27 00:25:54;;;;;;;45.77;24.10;;;12.00;99.90;;;;;;4400164;28;659528;-71
2021/08/27 00:28:42;;;;;;;45.50;25.03;;;12.00;99.90;;;;;;4418013;28;658611;-71
2021/08/27 00:31:32;;;;;;;45.03;25.27;;;12.00;99.90;;;;;;4426506;28;659696;-71
2021/08/27 00:34:19;;;;;;;43.77;24.00;;;12.00;99.90;;;;;;4405251;28;659693;-71
2021/08/27 00:37:07;;;;;;;43.07;23.53;;;12.00;99.90;;;;;;4420423;28;658563;-71
2021/08/27 00:39:54;;;;;;;45.30;23.83;;;12.00;99.90;;;;;;4409517;28;659447;-71
2021/08/27 00:42:42;;;;;;;47.83;25.90;;;11.90;99.90;;;;;;4425435;28;659174;-71
2021/08/27 00:45:30;;;;;;;42.87;24.90;;;12.00;99.90;;;;;;4428278;28;659611;-71
2021/08/27 00:48:19;;;;;;;44.03;23.30;;;12.00;99.90;;;;;;4402929;28;658884;-71
2021/08/27 00:51:06;;;;;;;40.75;22.58;;;12.00;99.90;;;;;;4423669;28;658687;-71
2021/08/27 00:53:54;;;;;;;44.13;23.77;;;12.00;99.90;;;;;;4403267;28;660000;-71
2021/08/27 00:56:41;;;;;;;44.53;25.47;;;12.00;99.90;;;;;;4422295;28;658615;-71
2021/08/27 00:59:29;;;;;;;43.50;24.50;;;12.00;99.90;;;;;;4403938;28;659439;-71
2021/08/27 01:02:16;;;;;;;56.17;25.53;;;12.00;99.90;;;;;;4423263;28;658572;-71
2021/08/27 01:05:07;;;;;;;43.60;24.13;;;12.10;99.90;;;;;;4396650;28;659804;-71
2021/08/27 01:07:59;;;;;;;44.03;23.77;;;12.10;99.90;;;;;;4404207;28;660199;-71
2021/08/27 01:10:47;;;;;;;44.13;25.03;;;12.10;99.90;;;;;;4404480;28;658819;-71
2021/08/27 01:13:37;;;;;;;46.47;25.17;;;12.10;99.90;;;;;;4404845;28;659016;-71
2021/08/27 01:16:26;;;;;;;48.20;26.03;;;12.10;99.90;;;;;;4404570;28;659619;-71
2021/08/27 01:19:31;;;;;;;53.60;26.70;;;12.00;99.90;;;;;;4404777;28;659834;-71
2021/08/27 01:22:28;;;;;;;49.07;27.00;;;12.10;99.90;;;;;;4393138;28;659139;-71
2021/08/27 01:25:17;;;;;;;50.43;27.90;;;12.10;99.90;;;;;;4400626;28;659442;-71
2021/08/27 01:28:05;;;;;;;49.03;26.73;;;12.10;99.90;;;;;;4397620;28;659536;-71
2021/08/27 01:31:02;;;;;;;49.17;26.07;;;12.10;99.90;;;;;;4403828;28;659155;-71
2021/08/27 01:33:58;;;;;;;50.53;26.90;;;12.10;99.90;;;;;;4404118;28;658903;-71
2021/08/27 01:36:47;;;;;;;51.80;25.70;;;12.00;99.90;;;;;;4404367;28;659408;-71
2021/08/27 01:39:37;;;;;;;59.30;28.53;;;12.00;99.90;;;;;;4396401;28;659465;-71
2021/08/27 01:42:26;;;;;;;56.53;28.67;;;12.00;99.90;;;;;;4395308;28;660244;-71
2021/08/27 01:45:13;;;;;;;54.97;28.80;;;11.90;99.90;;;;;;4408023;28;659520;-71
2021/08/27 01:48:04;;;;;;;55.43;27.33;;;11.90;99.90;;;;;;4427378;28;658445;-71
2021/08/27 01:50:54;;;;;;;52.77;27.67;;;11.90;99.90;;;;;;4425131;28;659484;-71
2021/08/27 01:53:44;;;;;;;55.07;28.30;;;11.80;99.90;;;;;;4415932;28;659087;-71
2021/08/27 01:56:31;;;;;;;53.47;28.87;;;11.90;99.90;;;;;;4430761;28;659405;-71
2021/08/27 01:59:19;;;;;;;57.00;29.53;;;11.90;99.90;;;;;;4403800;28;659123;-71
2021/08/27 02:02:08;;;;;;;61.70;29.13;;;11.80;99.90;;;;;;4414966;28;658702;-71
2021/08/27 02:04:58;;;;;;;59.73;29.13;;;11.80;99.90;;;;;;4421262;28;659264;-71
2021/08/27 02:07:45;;;;;;;65.87;31.53;;;11.80;99.90;;;;;;4396816;28;659669;-71
2021/08/27 02:10:34;;;;;;;52.40;27.07;;;11.90;99.90;;;;;;4409902;28;658538;-71
2021/08/27 02:13:22;;;;;;;57.30;28.10;;;11.90;99.90;;;;;;4427060;28;658846;-71
2021/08/27 02:16:10;;;;;;;58.67;29.47;;;11.90;99.90;;;;;;4434464;28;660010;-71
2021/08/27 02:18:57;;;;;;;59.97;29.30;;;11.90;99.90;;;;;;4401396;28;658942;-71
2021/08/27 02:21:46;;;;;;;68.60;30.27;;;11.80;99.90;;;;;;4429766;28;659680;-71
2021/08/27 02:24:36;;;;;;;64.57;30.33;;;11.80;99.90;;;;;;4410922;28;659030;-71
2021/08/27 02:27:26;;;;;;;69.33;31.10;;;11.80;99.90;;;;;;4401300;28;659287;-71
2021/08/27 02:30:13;;;;;;;60.63;30.07;;;11.80;99.90;;;;;;4407837;28;658809;-71
2021/08/27 02:33:02;;;;;;;67.53;29.93;;;11.80;99.90;;;;;;4428267;28;658866;-71
2021/08/27 02:35:50;;;;;;;61.97;28.73;;;11.80;99.90;;;;;;4401418;28;659209;-71
2021/08/27 02:38:38;;;;;;;57.27;26.73;;;11.70;99.90;;;;;;4410873;28;659050;-71
2021/08/27 02:41:25;;;;;;;55.57;26.40;;;11.80;99.90;;;;;;4426325;28;659794;-71
2021/08/27 02:44:14;;;;;;;55.60;25.97;;;11.80;99.90;;;;;;4401909;28;658529;-71
2021/08/27 02:47:03;;;;;;;51.27;24.90;;;11.70;99.90;;;;;;4421229;28;658777;-71
2021/08/27 02:49:50;;;;;;;51.70;25.47;;;11.70;99.90;;;;;;4429523;28;659222;-71
2021/08/27 02:52:41;;;;;;;58.50;26.87;;;11.80;99.90;;;;;;4410347;28;659124;-71
2021/08/27 02:55:35;;;;;;;58.70;27.03;;;11.80;99.90;;;;;;4401517;28;658823;-71
2021/08/27 02:58:24;;;;;;;56.07;26.67;;;11.80;99.90;;;;;;4390639;28;658591;-71
2021/08/27 03:01:18;;;;;;;57.13;26.17;;;11.80;99.90;;;;;;4433938;28;658655;-71
2021/08/27 03:04:08;;;;;;;56.80;26.10;;;11.80;99.90;;;;;;4406813;28;659195;-71
2021/08/27 03:07:05;;;;;;;57.07;26.77;;;11.80;99.90;;;;;;4399293;28;658438;-71
2021/08/27 03:10:02;;;;;;;49.13;24.58;;;11.80;99.90;;;;;;4410309;28;659025;-71
2021/08/27 03:12:59;;;;;;;52.57;25.13;;;11.80;99.90;;;;;;4386456;28;660020;-71
2021/08/27 03:15:48;;;;;;;49.80;25.48;;;11.80;99.90;;;;;;4405499;28;659128;-71
2021/08/27 03:18:40;;;;;;;52.80;25.27;;;11.80;99.90;;;;;;4406527;28;659529;-71
2021/08/27 03:21:29;;;;;;;50.00;24.40;;;11.80;99.90;;;;;;4391071;28;658842;-71
2021/08/27 03:24:19;;;;;;;52.33;25.17;;;11.80;99.90;;;;;;4413985;28;659362;-71
2021/08/27 03:27:10;;;;;;;52.43;24.43;;;11.70;99.90;;;;;;4432830;28;659533;-71
2021/08/27 03:30:00;;;;;;;49.67;24.10;;;11.70;99.90;;;;;;4387048;28;658751;-71
2021/08/27 03:32:49;;;;;;;49.20;24.97;;;11.70;99.90;;;;;;4406287;28;658828;-71
2021/08/27 03:35:38;;;;;;;49.77;24.63;;;11.70;99.90;;;;;;4430273;28;658435;-71
2021/08/27 03:38:27;;;;;;;51.77;25.87;;;11.70;99.90;;;;;;4403634;28;658618;-71
2021/08/27 03:41:14;;;;;;;50.47;25.33;;;11.70;99.90;;;;;;4406403;28;659715;-70
2021/08/27 03:44:02;;;;;;;52.27;25.20;;;11.70;99.90;;;;;;4420420;28;658407;-70
2021/08/27 03:46:50;;;;;;;48.97;23.63;;;11.80;99.90;;;;;;4428655;28;658702;-70
2021/08/27 03:49:38;;;;;;;54.67;26.47;;;11.80;99.90;;;;;;4407545;28;659000;-70
2021/08/27 03:52:27;;;;;;;46.03;24.13;;;11.80;99.90;;;;;;4425240;28;658800;-70
2021/08/27 03:55:15;;;;;;;46.43;23.97;;;11.70;99.90;;;;;;4409604;28;660438;-70
2021/08/27 03:58:03;;;;;;;42.50;23.93;;;11.80;99.90;;;;;;4404351;28;658677;-70
2021/08/27 04:00:51;;;;;;;45.93;24.03;;;11.80;99.90;;;;;;4429076;28;659634;-70
2021/08/27 04:03:39;;;;;;;49.87;24.03;;;11.80;99.90;;;;;;4410626;28;658349;-70
2021/08/27 04:06:26;;;;;;;44.87;23.73;;;11.90;99.90;;;;;;4429557;28;658564;-70
2021/08/27 04:09:15;;;;;;;49.20;23.10;;;11.90;99.90;;;;;;4410229;28;658630;-70
2021/08/27 04:12:04;;;;;;;46.20;22.97;;;11.90;99.90;;;;;;4408265;28;658707;-70
2021/08/27 04:14:52;;;;;;;42.73;22.53;;;11.90;99.90;;;;;;4423610;28;658970;-70
2021/08/27 04:17:40;;;;;;;45.40;21.23;;;12.00;99.90;;;;;;4428304;28;659265;-70
2021/08/27 04:20:28;;;;;;;41.80;23.23;;;12.00;99.90;;;;;;4402719;28;658517;-70
2021/08/27 04:23:15;;;;;;;42.53;22.70;;;12.00;99.90;;;;;;4415305;28;660011;-70
2021/08/27 04:26:05;;;;;;;41.13;22.00;;;12.10;99.90;;;;;;4391715;28;658617;-70
2021/08/27 04:28:52;;;;;;;45.80;23.20;;;12.10;99.90;;;;;;4406509;28;658600;-70
2021/08/27 04:31:40;;;;;;;39.20;21.70;;;12.10;99.90;;;;;;4421945;28;660213;-70
2021/08/27 04:34:28;;;;;;;38.70;22.40;;;12.10;99.90;;;;;;4409251;28;658740;-70
2021/08/27 04:37:16;;;;;;;43.33;23.33;;;12.20;99.90;;;;;;4421754;28;659573;-70
2021/08/27 04:40:04;;;;;;;43.17;23.10;;;12.20;99.90;;;;;;4407864;28;659259;-70
2021/08/27 04:42:53;;;;;;;43.07;23.87;;;12.10;99.90;;;;;;4428304;28;659130;-70
2021/08/27 04:45:40;;;;;;;40.47;22.97;;;12.20;99.90;;;;;;4404397;28;658682;-70
2021/08/27 04:48:28;;;;;;;40.37;22.73;;;12.10;99.90;;;;;;4404495;28;659436;-70
2021/08/27 04:51:15;;;;;;;40.70;23.13;;;12.10;99.90;;;;;;4426836;28;659054;-70
2021/08/27 04:54:03;;;;;;;40.80;22.87;;;12.10;99.90;;;;;;4402162;28;658549;-70
2021/08/27 04:56:51;;;;;;;50.77;26.47;;;12.10;99.90;;;;;;4427703;28;659809;-70
2021/08/27 04:59:43;;;;;;;49.55;26.52;;;12.10;99.90;;;;;;4408634;28;659040;-70
2021/08/27 05:02:30;;;;;;;47.67;24.67;;;12.20;99.90;;;;;;4401170;28;659583;-70
2021/08/27 05:05:18;;;;;;;52.13;25.60;;;12.20;99.90;;;;;;4408845;28;658595;-70
2021/08/27 05:08:05;;;;;;;47.27;24.83;;;12.20;99.90;;;;;;4428368;28;659659;-70
2021/08/27 05:10:53;;;;;;;54.87;24.87;;;12.10;99.90;;;;;;4400197;28;658424;-70
2021/08/27 05:13:41;;;;;;;49.00;24.17;;;12.10;99.90;;;;;;4427784;28;659292;-70
2021/08/27 05:16:30;;;;;;;47.93;24.97;;;12.20;99.90;;;;;;4401506;28;658642;-70
2021/08/27 05:19:17;;;;;;;54.30;23.57;;;12.20;99.90;;;;;;4402510;28;659028;-70
2021/08/27 05:22:05;;;;;;;45.83;24.60;;;12.20;99.90;;;;;;4419733;28;659901;-71
2021/08/27 05:24:53;;;;;;;40.17;21.73;;;12.20;99.90;;;;;;4408387;28;658394;-70
2021/08/27 05:27:41;;;;;;;38.63;20.43;;;12.30;99.90;;;;;;4427478;28;658489;-70
2021/08/27 05:30:28;;;;;;;49.90;21.60;;;12.30;99.90;;;;;;4406644;28;658670;-70
2021/08/27 05:33:17;;;;;;;40.03;19.60;;;12.30;99.90;;;;;;4431126;28;658490;-70
2021/08/27 05:36:05;;;;;;;41.17;20.07;;;12.40;99.90;;;;;;4404624;28;659810;-70
2021/08/27 05:38:53;;;;;;;36.43;18.63;;;12.40;99.90;;;;;;4400291;28;658872;-70
2021/08/27 05:41:40;;;;;;;33.43;18.47;;;12.50;99.90;;;;;;4430607;28;659518;-70
2021/08/27 05:44:28;;;;;;;37.50;18.47;;;12.70;99.90;;;;;;4402223;28;658699;-70
2021/08/27 05:47:16;;;;;;;34.23;17.93;;;12.80;99.90;;;;;;4430082;28;659221;-70
2021/08/27 05:50:05;;;;;;;33.57;17.93;;;12.90;99.90;;;;;;4411400;28;658510;-70
2021/08/27 05:52:53;;;;;;;34.43;17.43;;;13.10;99.90;;;;;;4409884;28;658957;-70
2021/08/27 05:55:41;;;;;;;34.40;18.47;;;13.10;99.90;;;;;;4423287;28;659052;-70
2021/08/27 05:58:28;;;;;;;32.33;18.50;;;13.20;99.90;;;;;;4411676;28;658803;-70
2021/08/27 06:01:16;;;;;;;28.83;17.27;;;13.30;99.90;;;;;;4434280;28;658545;-70
2021/08/27 06:04:04;;;;;;;28.40;17.37;;;13.40;99.90;;;;;;4406766;28;658804;-70
2021/08/27 06:06:53;;;;;;;32.03;18.30;;;13.50;99.90;;;;;;4430085;28;658239;-70
2021/08/27 06:09:42;;;;;;;32.40;19.07;;;13.60;99.90;;;;;;4407950;28;658868;-71
2021/08/27 06:12:29;;;;;;;32.77;18.47;;;13.70;99.90;;;;;;4403209;28;660195;-71
2021/08/27 06:15:17;;;;;;;35.17;18.97;;;13.90;99.90;;;;;;4430924;28;659032;-70
2021/08/27 06:18:04;;;;;;;31.23;18.90;;;14.10;99.90;;;;;;4407696;28;659772;-71
2021/08/27 06:20:52;;;;;;;32.07;18.23;;;14.20;99.90;;;;;;4413938;28;659102;-71
2021/08/27 06:23:41;;;;;;;34.80;18.37;;;14.40;99.90;;;;;;4430039;28;660192;-70
2021/08/27 06:26:29;;;;;;;30.93;17.23;;;14.30;99.90;;;;;;4411614;28;658929;-71
2021/08/27 06:29:17;;;;;;;31.77;18.13;;;14.20;99.90;;;;;;4427810;28;658769;-71
2021/08/27 06:32:05;;;;;;;28.63;16.77;;;14.00;99.90;;;;;;4406965;28;659468;-71
2021/08/27 06:34:54;;;;;;;29.55;16.85;;;13.90;99.90;;;;;;4410595;28;658889;-70
2021/08/27 06:40:49;;;;;;;29.53;16.57;;;13.70;99.90;;;;;;4405830;28;658950;-68
2021/08/27 06:43:38;;;;;;;31.37;17.43;;;13.90;99.90;;;;;;4405097;28;659125;-68
2021/08/27 06:46:26;;;;;;;24.30;15.33;;;14.00;99.90;;;;;;4403473;28;659953;-68
2021/08/27 06:49:14;;;;;;;25.73;15.32;;;14.20;99.90;;;;;;4400670;28;658802;-68
2021/08/27 06:52:01;;;;;;;31.20;16.60;;;14.40;99.90;;;;;;4423642;28;658865;-68
2021/08/27 06:54:50;;;;;;;28.47;16.37;;;14.40;99.90;;;;;;4409451;28;658318;-68
2021/08/27 06:57:39;;;;;;;31.87;17.00;;;14.30;99.90;;;;;;4412457;28;659214;-68
2021/08/27 07:00:27;;;;;;;23.87;14.53;;;14.40;99.90;;;;;;4429810;28;659027;-68
2021/08/27 07:03:15;;;;;;;19.43;11.70;;;14.50;99.90;;;;;;4410372;28;659928;-68
2021/08/27 07:06:02;;;;;;;19.95;12.13;;;14.50;99.90;;;;;;4413325;28;658615;-68
2021/08/27 07:08:50;;;;;;;23.03;10.90;;;14.40;99.90;;;;;;4430242;28;660067;-68
2021/08/27 07:11:38;;;;;;;19.40;11.50;;;14.30;99.90;;;;;;4404645;28;659035;-68
2021/08/27 07:14:27;;;;;;;23.07;11.03;;;14.30;99.90;;;;;;4426182;28;659651;-68
2021/08/27 07:17:15;;;;;;;18.10;11.27;;;14.40;99.90;;;;;;4409301;28;658359;-68
2021/08/27 07:20:03;;;;;;;17.97;11.07;;;14.50;99.90;;;;;;4415231;28;658888;-68
2021/08/27 07:22:51;;;;;;;22.20;12.47;;;14.40;99.90;;;;;;4421840;28;658866;-68
2021/08/27 07:25:39;;;;;;;20.77;12.10;;;14.40;99.90;;;;;;4408867;28;658632;-68
2021/08/27 07:28:26;;;;;;;24.33;12.33;;;14.20;99.90;;;;;;4425161;28;658067;-68
2021/08/27 07:31:15;;;;;;;18.17;11.80;;;14.20;99.90;;;;;;4408567;28;659014;-68
2021/08/27 07:34:03;;;;;;;18.97;11.90;;;14.30;99.90;;;;;;4407033;28;658917;-68
2021/08/27 07:36:51;;;;;;;23.00;12.90;;;14.50;99.90;;;;;;4420216;28;658446;-68
2021/08/27 07:39:38;;;;;;;26.97;16.83;;;14.80;99.90;;;;;;4410079;28;658826;-69
2021/08/27 07:42:27;;;;;;;26.17;15.37;;;14.80;99.90;;;;;;4427943;28;659196;-69
2021/08/27 07:45:14;;;;;;;22.30;14.70;;;14.90;94.10;;;;;;4406170;28;659648;-69
2021/08/27 07:48:04;;;;;;;23.27;13.70;;;15.10;99.90;;;;;;4417981;28;659058;-69
2021/08/27 07:50:53;;;;;;;25.33;14.20;;;15.00;84.50;;;;;;4424208;28;658316;-69
2021/08/27 07:53:40;;;;;;;21.70;13.87;;;14.80;97.50;;;;;;4431886;28;658827;-69
2021/08/27 07:56:28;;;;;;;22.53;13.30;;;14.40;99.90;;;;;;4408575;28;658857;-69
2021/08/27 07:59:15;;;;;;;22.57;14.43;;;14.20;99.90;;;;;;4432445;28;658923;-68
2021/08/27 08:02:03;;;;;;;20.67;13.93;;;14.40;99.90;;;;;;4409783;28;659605;-68
2021/08/27 08:04:52;;;;;;;20.37;13.47;;;14.50;99.90;;;;;;4428477;28;659246;-69
2021/08/27 08:07:40;;;;;;;20.20;13.63;;;14.60;99.90;;;;;;4405256;28;659363;-69
2021/08/27 08:10:28;;;;;;;18.67;12.23;;;14.60;99.90;;;;;;4409174;28;659545;-68
2021/08/27 08:13:16;;;;;;;17.93;12.60;;;14.50;99.90;;;;;;4428774;28;659235;-69
2021/08/27 08:16:04;;;;;;;23.77;13.53;;;14.50;99.90;;;;;;4404694;28;658706;-69
2021/08/27 08:18:51;;;;;;;24.07;13.53;;;14.60;99.90;;;;;;4418977;28;658617;-69
2021/08/27 08:21:40;;;;;;;21.43;13.60;;;14.60;99.90;;;;;;4400489;28;659250;-69
2021/08/27 08:24:28;;;;;;;24.07;14.07;;;14.70;99.90;;;;;;4406451;28;658740;-69
2021/08/27 08:27:16;;;;;;;23.37;14.23;;;14.80;99.90;;;;;;4420482;28;659129;-69
2021/08/27 08:30:04;;;;;;;18.13;13.17;;;14.80;99.90;;;;;;4409866;28;659090;-69
2021/08/27 08:32:51;;;;;;;24.37;13.90;;;14.80;99.90;;;;;;4427965;28;658915;-69
2021/08/27 08:35:39;;;;;;;20.73;13.70;;;14.90;99.90;;;;;;4389135;28;659200;-68
2021/08/27 08:38:28;;;;;;;22.70;13.27;;;14.90;99.90;;;;;;4422201;28;659361;-69
2021/08/27 08:41:16;;;;;;;20.87;12.80;;;14.90;99.90;;;;;;4403577;28;659377;-69
2021/08/27 08:44:04;;;;;;;19.87;13.03;;;14.90;99.90;;;;;;4404927;28;658879;-69
2021/08/27 08:46:52;;;;;;;25.77;13.97;;;14.90;99.90;;;;;;4410720;28;659355;-69
2021/08/27 08:49:39;;;;;;;25.60;14.50;;;14.80;99.90;;;;;;4405243;28;659998;-68
2021/08/27 08:52:27;;;;;;;23.27;13.70;;;14.70;99.90;;;;;;4428002;28;658925;-69
2021/08/27 08:55:16;;;;;;;22.33;13.63;;;14.60;99.90;;;;;;4399238;28;660090;-68
2021/08/27 08:58:04;;;;;;;21.17;12.93;;;14.50;99.90;;;;;;4409053;28;658443;-68
2021/08/27 09:00:51;;;;;;;19.93;12.60;;;14.50;99.90;;;;;;4422292;28;659181;-69
2021/08/27 09:03:39;;;;;;;21.10;12.97;;;14.40;99.90;;;;;;4404717;28;659522;-69
2021/08/27 09:06:27;;;;;;;19.17;12.50;;;14.40;99.90;;;;;;4432134;28;658969;-69
2021/08/27 09:09:29;;;;;;;20.57;13.13;;;14.60;99.90;;;;;;4409121;28;659516;-68
2021/08/27 09:12:19;;;;;;;22.33;13.17;;;14.60;99.90;;;;;;4399520;28;659051;-69
2021/08/27 09:15:09;;;;;;;21.10;13.30;;;14.80;99.90;;;;;;4395866;28;659173;-69
2021/08/27 09:17:57;;;;;;;23.43;13.40;;;14.80;99.90;;;;;;4432708;28;658381;-69
2021/08/27 09:20:45;;;;;;;19.73;13.30;;;14.80;99.90;;;;;;4406912;28;660023;-69
2021/08/27 09:23:32;;;;;;;18.70;11.80;;;14.90;99.90;;;;;;4413653;28;659330;-69
2021/08/27 09:26:35;;;;;;;15.17;11.13;;;15.00;99.90;;;;;;4431228;28;658986;-69
2021/08/27 09:29:41;;;;;;;15.23;10.43;;;14.80;96.40;;;;;;4380588;28;658733;-69
2021/08/27 09:32:29;;;;;;;16.07;10.97;;;14.80;99.90;;;;;;4380089;28;659388;-69
2021/08/27 09:35:18;;;;;;;19.93;11.60;;;14.80;99.90;;;;;;4431550;28;658671;-69
2021/08/27 09:38:15;;;;;;;18.90;11.33;;;14.80;99.90;;;;;;4411712;28;658506;-68
2021/08/27 09:41:04;;;;;;;18.00;11.57;;;14.70;99.90;;;;;;4385327;28;658741;-69
2021/08/27 09:43:52;;;;;;;18.90;11.07;;;14.80;99.90;;;;;;4427408;28;658829;-69
2021/08/27 09:46:43;;;;;;;17.47;10.70;;;14.80;99.90;;;;;;4402756;28;659957;-68
2021/08/27 09:49:32;;;;;;;15.67;10.97;;;14.80;99.90;;;;;;4405464;28;659474;-68
2021/08/27 09:52:19;;;;;;;17.13;10.93;;;14.80;99.90;;;;;;4407235;28;659457;-69
2021/08/27 09:55:08;;;;;;;15.33;10.40;;;14.80;99.90;;;;;;4423716;28;659443;-69
2021/08/27 09:58:03;;;;;;;16.70;11.40;;;14.90;99.90;;;;;;4430953;28;659208;-68
2021/08/27 10:01:01;;;;;;;17.00;11.30;;;15.00;99.90;;;;;;4403532;28;659092;-68
2021/08/27 10:04:04;;;;;;;18.97;10.33;;;15.10;99.90;;;;;;4378483;28;659321;-68
2021/08/27 10:06:51;;;;;;;17.87;10.90;;;15.10;99.60;;;;;;4407678;28;658459;-68
2021/08/27 10:09:46;;;;;;;17.73;10.40;;;15.00;99.90;;;;;;4412056;28;658859;-68
2021/08/27 10:12:34;;;;;;;16.17;10.63;;;15.10;99.90;;;;;;4397370;28;658558;-68
2021/08/27 10:15:21;;;;;;;15.17;10.63;;;15.20;99.90;;;;;;4430254;28;659282;-68
2021/08/27 10:18:10;;;;;;;14.43;10.20;;;15.40;99.90;;;;;;4404256;28;658946;-68
2021/08/27 10:20:59;;;;;;;18.00;9.50;;;15.50;99.90;;;;;;4411707;28;658842;-68
2021/08/27 10:23:46;;;;;;;15.03;9.33;;;15.40;98.40;;;;;;4435329;28;657644;-68
2021/08/27 10:26:34;;;;;;;15.37;8.90;;;15.40;99.90;;;;;;4408268;28;658361;-68
2021/08/27 10:29:22;;;;;;;14.90;8.93;;;15.50;89.90;;;;;;4430329;28;657976;-68
2021/08/27 10:32:10;;;;;;;14.57;8.70;;;15.60;97.80;;;;;;4399388;28;658735;-68
2021/08/27 10:34:58;;;;;;;12.27;8.77;;;15.70;77.30;;;;;;4406475;28;657982;-68
2021/08/27 10:37:48;;;;;;;13.70;8.00;;;15.80;86.00;;;;;;4428356;28;658835;-68
2021/08/27 10:40:39;;;;;;;11.90;7.93;;;15.90;77.60;;;;;;4401605;28;658340;-68
2021/08/27 10:43:54;;;;;;;10.57;7.00;;;15.90;62.30;;;;;;4408318;28;658404;-68
2021/08/27 10:47:05;;;;;;;11.07;6.70;;;15.90;47.00;;;;;;4399884;28;657872;-68
2021/08/27 10:50:00;;;;;;;10.63;6.70;;;15.90;56.20;;;;;;4377891;28;657688;-68
2021/08/27 10:52:49;;;;;;;12.75;6.18;;;15.70;46.70;;;;;;4389501;28;657521;-68
2021/08/27 10:55:38;;;;;;;11.33;6.40;;;15.80;69.60;;;;;;4422424;28;657825;-68
2021/08/27 10:58:43;;;;;;;9.07;6.03;;;15.80;57.00;;;;;;4408267;28;658943;-68
2021/08/27 11:01:32;;;;;;;8.50;5.83;;;15.90;63.10;;;;;;4396222;28;657099;-68
2021/08/27 11:04:23;;;;;;;7.90;5.50;;;16.00;39.30;;;;;;4409042;28;657243;-68
2021/08/27 11:07:15;;;;;;;10.18;5.72;;;16.20;52.40;;;;;;4413264;28;657374;-68
2021/08/27 11:10:07;;;;;;;8.77;5.50;;;16.30;46.10;;;;;;4389023;28;657842;-69
2021/08/27 11:12:58;;;;;;;9.00;5.57;;;16.20;26.70;;;;;;4411060;28;657448;-69
2021/08/27 11:15:46;;;;;;;9.90;5.80;;;15.90;56.20;;;;;;4412871;28;656439;-68
2021/08/27 11:18:35;;;;;;;12.57;5.23;;;15.70;46.30;;;;;;4403752;28;657718;-68
2021/08/27 11:21:33;;;;;;;9.67;5.07;;;15.60;54.90;;;;;;4398532;28;657744;-68
2021/08/27 11:24:24;;;;;;;7.07;5.17;;;15.40;60.20;;;;;;4407051;28;657252;-69
2021/08/27 11:27:18;;;;;;;8.40;5.70;;;15.40;76.20;;;;;;4387023;28;656974;-68
2021/08/27 11:30:30;;;;;;;11.23;5.47;;;15.40;90.30;;;;;;4408634;28;657806;-69
2021/08/27 11:33:56;;;;;;;11.00;5.73;;;15.40;77.70;;;;;;4388674;28;657573;-68
2021/08/27 11:36:44;;;;;;;12.60;6.37;;;15.50;88.80;;;;;;4408969;28;658019;-69
2021/08/27 11:39:32;;;;;;;9.20;6.07;;;15.60;83.20;;;;;;4428330;28;658152;-69
2021/08/27 11:42:21;;;;;;;10.13;6.00;;;15.80;86.20;;;;;;4410861;28;657640;-69
2021/08/27 11:45:10;;;;;;;8.90;6.00;;;16.00;93.60;;;;;;4404081;28;657559;-69
2021/08/27 11:47:59;;;;;;;9.67;5.57;;;16.00;59.80;;;;;;4408501;28;656432;-69
2021/08/27 11:50:49;;;;;;;8.10;5.73;;;16.00;61.70;;;;;;4428711;28;656516;-68
2021/08/27 11:53:37;;;;;;;10.27;6.27;;;16.10;58.50;;;;;;4400388;28;657159;-68
2021/08/27 11:56:25;;;;;;;9.17;6.50;;;16.10;55.30;;;;;;4403519;28;658396;-68
2021/08/27 11:59:16;;;;;;;11.10;6.43;;;16.10;58.10;;;;;;4406297;28;656555;-68
2021/08/27 12:02:16;;;;;;;11.23;7.27;;;16.20;66.60;;;;;;4410768;28;657749;-69
2021/08/27 12:05:05;;;;;;;10.47;8.37;;;16.30;68.50;;;;;;4374726;28;657876;-68
2021/08/27 12:07:54;;;;;;;15.17;8.90;;;16.40;81.40;;;;;;4414639;28;657605;-68
2021/08/27 12:10:44;;;;;;;13.13;8.40;;;16.50;91.20;;;;;;4428520;28;658265;-68
2021/08/27 12:13:31;;;;;;;15.03;10.17;;;16.60;96.20;;;;;;4398539;28;657312;-69
2021/08/27 12:16:20;;;;;;;16.07;9.37;;;16.60;86.30;;;;;;4402998;28;658893;-68
2021/08/27 12:19:08;;;;;;;11.83;8.80;;;16.70;89.20;;;;;;4407299;28;658440;-69
2021/08/27 12:22:02;;;;;;;13.87;9.80;;;16.80;80.30;;;;;;4427653;28;658493;-68
2021/08/27 12:24:50;;;;;;;15.87;8.87;;;16.80;76.20;;;;;;4383205;28;657968;-69
2021/08/27 12:27:47;;;;;;;13.97;8.53;;;16.60;41.40;;;;;;4402462;28;657418;-68
2021/08/27 12:30:35;;;;;;;15.70;9.70;;;16.60;69.50;;;;;;4406191;28;658495;-69
2021/08/27 12:33:24;;;;;;;13.30;8.33;;;16.70;81.90;;;;;;4404475;28;657806;-68
2021/08/27 12:36:15;;;;;;;12.27;8.20;;;16.80;55.30;;;;;;4400879;28;657343;-68
2021/08/27 12:39:03;;;;;;;15.73;8.93;;;16.70;70.10;;;;;;4407076;28;657355;-69
2021/08/27 12:41:50;;;;;;;15.60;8.50;;;16.70;78.70;;;;;;4424660;28;656949;-68
2021/08/27 12:44:38;;;;;;;10.63;7.70;;;16.70;68.70;;;;;;4399060;28;657821;-68
2021/08/27 12:47:32;;;;;;;11.17;8.33;;;16.80;57.20;;;;;;4428822;28;657947;-69
2021/08/27 12:50:21;;;;;;;12.77;7.90;;;16.80;47.00;;;;;;4406541;28;657318;-68
2021/08/27 12:53:09;;;;;;;12.83;8.50;;;16.90;45.30;;;;;;4407176;28;659004;-68
2021/08/27 12:56:13;;;;;;;14.50;7.70;;;17.00;46.40;;;;;;4428676;28;657385;-69
2021/08/27 12:59:14;;;;;;;10.40;7.30;;;17.10;40.00;;;;;;4400851;28;657604;-68
2021/08/27 13:02:02;;;;;;;10.67;7.00;;;17.10;32.70;;;;;;4402488;28;657631;-68
2021/08/27 13:04:51;;;;;;;9.50;6.07;;;17.20;28.90;;;;;;4398850;28;658677;-68
2021/08/27 13:07:40;;;;;;;8.83;6.40;;;17.10;13.50;;;;;;4410016;28;657128;-68
2021/08/27 13:10:28;;;;;;;12.13;6.60;;;17.00;13.30;;;;;;4410514;28;656216;-68
2021/08/27 13:13:25;;;;;;;9.73;6.67;;;17.00;23.70;;;;;;4428378;28;658436;-68
2021/08/27 13:16:14;;;;;;;12.20;6.70;;;17.00;19.60;;;;;;4388637;28;656617;-68
2021/08/27 13:19:01;;;;;;;10.73;6.50;;;16.90;19.80;;;;;;4426328;28;657580;-68
2021/08/27 13:21:50;;;;;;;10.97;5.87;;;16.90;35.70;;;;;;4405225;28;658179;-68
2021/08/27 13:24:39;;;;;;;10.77;6.25;;;16.90;42.50;;;;;;4413067;28;657498;-69
2021/08/27 13:27:26;;;;;;;8.77;6.10;;;16.80;36.70;;;;;;4426664;28;658602;-68
2021/08/27 13:30:16;;;;;;;7.97;4.50;;;16.90;31.20;;;;;;4406810;28;657916;-68
2021/08/27 13:33:05;;;;;;;5.17;3.80;;;16.90;33.00;;;;;;4409313;28;656952;-68
2021/08/27 13:35:53;;;;;;;5.53;3.50;;;16.80;14.60;;;;;;4411084;28;657549;-68
2021/08/27 13:38:40;;;;;;;5.30;3.27;;;16.80;23.40;;;;;;4429130;28;657054;-68
2021/08/27 13:41:30;;;;;;;4.87;2.93;;;16.90;12.60;;;;;;4401973;28;656490;-68
2021/08/27 13:44:17;;;;;;;4.43;2.70;;;16.80;21.90;;;;;;4405720;28;656394;-68
2021/08/27 13:47:05;;;;;;;4.90;2.47;;;16.80;20.50;;;;;;4430730;28;657893;-68
2021/08/27 13:49:53;;;;;;;4.83;2.50;;;16.80;5.90;;;;;;4410880;28;657069;-68
2021/08/27 13:52:41;;;;;;;2.60;2.37;;;16.80;9.00;;;;;;4424858;28;656657;-68
2021/08/27 13:55:29;;;;;;;3.73;2.30;;;16.90;1.00;;;;;;4411225;28;655340;-68
2021/08/27 13:58:18;;;;;;;2.37;2.17;;;17.00;3.10;;;;;;4431084;28;655731;-68
2021/08/27 14:01:06;;;;;;;3.23;2.50;;;17.10;1.20;;;;;;4405293;28;655911;-68
2021/08/27 14:03:54;;;;;;;3.73;2.40;;;17.20;7.30;;;;;;4407528;28;656974;-68
2021/08/27 14:06:42;;;;;;;6.73;2.87;;;17.20;1.00;;;;;;4424091;28;655951;-69
2021/08/27 14:09:30;;;;;;;6.17;2.90;;;17.00;1.00;;;;;;4407906;28;656569;-68
2021/08/27 14:12:17;;;;;;;3.43;2.80;;;16.80;10.90;;;;;;4406606;28;655646;-68
2021/08/27 14:15:07;;;;;;;4.50;2.97;;;16.60;14.50;;;;;;4426089;28;657257;-68